Greenwood, SC

4:31 PM EDT on July 29, 2015 (GMT -0400)
Cherokee Hills | | Change Station
CLOSE
Current Station
Personal Weather Station
Location: Greenwood, SC
Elevation: 554 ft
Nearby Weather Stations

Elev 554 ft 34.24 °N, 82.17 °W | Updated 22 seconds ago

Overcast
Overcast
83.4 °F
Feels Like 92 °F
N
2.0
Wind Variable Wind from ENE
Gusts 4.0 mph

Today
High -- | Low -- °F
--% Chance of Precip.
Yesterday
High -- | Low -- °F
Precip. -- in
6:37 AM 8:32 PM
Waxing Gibbous, 96% visible
Pressure 29.95 in
Visibility 10.0 miles
Clouds Few 4800 ft
Mostly Cloudy 7000 ft
Overcast 12000 ft
Heat Index 92 °F
Dew Point 76 °F
Humidity 79%
Rainfall 0.00 in
Snow Depth Not available.
UV 3 out of 12
Pollen 3.40 out of 12
Air Quality Not available.
Flu Activity Not available.
METAR KGRD 291956Z AUTO 08006KT 10SM -RA FEW048 BKN070 OVC120 29/23 A2997 RMK AO2 LTG DSNT SE RAB31 SLP141 P0000 T02940233

More Conditions Fewer Conditions

Pressure 29.95 in
Visibility 10.0 miles
Clouds Few 4800 ft
Mostly Cloudy 7000 ft
Overcast 12000 ft
Heat Index 92 °F
Dew Point 76 °F
Humidity 79%
Rainfall 0.00 in
Snow Depth Not available.
UV 3 out of 12
Pollen 3.40 out of 12
Air Quality Not available.
Flu Activity Not available.
METAR KGRD 291956Z AUTO 08006KT 10SM -RA FEW048 BKN070 OVC120 29/23 A2997 RMK AO2 LTG DSNT SE RAB31 SLP141 P0000 T02940233

More Conditions Fewer Conditions

10-Day Weather Forecast

×

Almanac

Astronomy

Jul. 29, 2015 Rise Set
Actual Time
Civil Twilight
Nautical Twilight
Astronomical Twilight
Moon
Length of Visible Light
Length of Day
Tomorrow will be .
, % of the Moon is Illuminated

Today's Extremes

State Highs State Lows

Community

WunderPhotos

Upload Photos

1,842,162 photos uploaded!

WunderBlogs® & News

Nearby

Air Quality

  Air Quality AQ Index Pollutant
Not available.

Snow Depth

Station Depth Elevation

Earthquake Activity

City Distance Mag. Time & Date
Minimum magnitude displayed is 2.5.

Coastal Water Temperatures

Place Temperature

Stations

Nearby Weather Stations

Station Location Temp. Windchill Dew Point Humidity Wind Precip. Elev Updated Type